sensor_id;sensor_type;location;lat;lon;timestamp;P1;durP1;ratioP1;P2;durP2;ratioP2
65271;SDS011;51868;48.812;8.198;2022-12-18T00:01:15;68.03;;;26.73;;
65271;SDS011;51868;48.812;8.198;2022-12-18T00:03:46;65.60;;;25.88;;
65271;SDS011;51868;48.812;8.198;2022-12-18T00:06:15;67.43;;;24.52;;
65271;SDS011;51868;48.812;8.198;2022-12-18T00:08:43;68.50;;;26.42;;
65271;SDS011;51868;48.812;8.198;2022-12-18T00:11:17;70.47;;;25.73;;
65271;SDS011;51868;48.812;8.198;2022-12-18T00:13:46;65.57;;;26.85;;
65271;SDS011;51868;48.812;8.198;2022-12-18T00:16:15;73.25;;;27.45;;
65271;SDS011;51868;48.812;8.198;2022-12-18T00:18:44;70.88;;;26.65;;
65271;SDS011;51868;48.812;8.198;2022-12-18T00:21:15;63.63;;;25.70;;
65271;SDS011;51868;48.812;8.198;2022-12-18T00:23:45;58.50;;;24.85;;
65271;SDS011;51868;48.812;8.198;2022-12-18T00:26:16;73.70;;;27.40;;
65271;SDS011;51868;48.812;8.198;2022-12-18T00:28:47;67.63;;;26.63;;
65271;SDS011;51868;48.812;8.198;2022-12-18T00:31:15;69.60;;;26.70;;
65271;SDS011;51868;48.812;8.198;2022-12-18T00:33:44;74.30;;;26.90;;
65271;SDS011;51868;48.812;8.198;2022-12-18T00:36:15;63.17;;;25.05;;
65271;SDS011;51868;48.812;8.198;2022-12-18T00:38:45;58.47;;;24.55;;
65271;SDS011;51868;48.812;8.198;2022-12-18T00:41:14;77.25;;;26.00;;
65271;SDS011;51868;48.812;8.198;2022-12-18T00:44:05;72.47;;;26.33;;
65271;SDS011;51868;48.812;8.198;2022-12-18T00:46:33;74.22;;;26.40;;
65271;SDS011;51868;48.812;8.198;2022-12-18T00:49:01;65.32;;;24.38;;
65271;SDS011;51868;48.812;8.198;2022-12-18T00:51:30;75.85;;;25.60;;
65271;SDS011;51868;48.812;8.198;2022-12-18T00:53:57;83.68;;;27.65;;
65271;SDS011;51868;48.812;8.198;2022-12-18T00:56:28;58.67;;;23.83;;
65271;SDS011;51868;48.812;8.198;2022-12-18T00:58:56;64.72;;;25.63;;
65271;SDS011;51868;48.812;8.198;2022-12-18T01:01:23;78.68;;;25.83;;
65271;SDS011;51868;48.812;8.198;2022-12-18T01:03:52;65.47;;;26.23;;
65271;SDS011;51868;48.812;8.198;2022-12-18T01:06:20;76.93;;;25.30;;
65271;SDS011;51868;48.812;8.198;2022-12-18T01:08:48;72.95;;;25.70;;
65271;SDS011;51868;48.812;8.198;2022-12-18T01:11:16;68.50;;;27.02;;
65271;SDS011;51868;48.812;8.198;2022-12-18T01:13:47;74.00;;;25.10;;
65271;SDS011;51868;48.812;8.198;2022-12-18T01:16:15;70.20;;;25.50;;
65271;SDS011;51868;48.812;8.198;2022-12-18T01:18:44;61.80;;;24.45;;
65271;SDS011;51868;48.812;8.198;2022-12-18T01:21:12;67.32;;;26.30;;
65271;SDS011;51868;48.812;8.198;2022-12-18T01:23:42;72.78;;;25.95;;
65271;SDS011;51868;48.812;8.198;2022-12-18T01:26:11;76.68;;;25.10;;
65271;SDS011;51868;48.812;8.198;2022-12-18T01:28:40;71.13;;;24.83;;
65271;SDS011;51868;48.812;8.198;2022-12-18T01:31:10;72.50;;;26.27;;
65271;SDS011;51868;48.812;8.198;2022-12-18T01:33:39;69.88;;;24.98;;
65271;SDS011;51868;48.812;8.198;2022-12-18T01:36:07;73.65;;;25.23;;
65271;SDS011;51868;48.812;8.198;2022-12-18T01:38:36;60.90;;;22.20;;
65271;SDS011;51868;48.812;8.198;2022-12-18T01:41:03;65.07;;;25.13;;
65271;SDS011;51868;48.812;8.198;2022-12-18T01:43:44;72.07;;;24.98;;
65271;SDS011;51868;48.812;8.198;2022-12-18T01:46:15;71.38;;;22.88;;
65271;SDS011;51868;48.812;8.198;2022-12-18T01:48:45;71.47;;;24.05;;
65271;SDS011;51868;48.812;8.198;2022-12-18T01:51:15;72.90;;;24.70;;
65271;SDS011;51868;48.812;8.198;2022-12-18T01:53:43;69.72;;;24.77;;
65271;SDS011;51868;48.812;8.198;2022-12-18T01:56:12;66.85;;;22.27;;
65271;SDS011;51868;48.812;8.198;2022-12-18T01:58:44;73.63;;;25.02;;
65271;SDS011;51868;48.812;8.198;2022-12-18T02:01:19;74.85;;;25.85;;
65271;SDS011;51868;48.812;8.198;2022-12-18T02:03:49;76.55;;;24.80;;
65271;SDS011;51868;48.812;8.198;2022-12-18T02:06:18;63.92;;;23.58;;
65271;SDS011;51868;48.812;8.198;2022-12-18T02:11:28;63.80;;;22.58;;
65271;SDS011;51868;48.812;8.198;2022-12-18T02:14:09;59.45;;;22.52;;
65271;SDS011;51868;48.812;8.198;2022-12-18T02:16:48;76.07;;;27.83;;
65271;SDS011;51868;48.812;8.198;2022-12-18T02:19:37;59.17;;;23.70;;
65271;SDS011;51868;48.812;8.198;2022-12-18T02:22:27;62.50;;;24.35;;
65271;SDS011;51868;48.812;8.198;2022-12-18T02:25:02;65.63;;;24.80;;
65271;SDS011;51868;48.812;8.198;2022-12-18T02:27:40;92.47;;;39.58;;
65271;SDS011;51868;48.812;8.198;2022-12-18T02:30:10;66.47;;;27.80;;
65271;SDS011;51868;48.812;8.198;2022-12-18T02:32:39;69.63;;;25.75;;
65271;SDS011;51868;48.812;8.198;2022-12-18T02:35:12;69.90;;;25.85;;
65271;SDS011;51868;48.812;8.198;2022-12-18T02:37:43;60.22;;;25.40;;
65271;SDS011;51868;48.812;8.198;2022-12-18T02:40:13;64.05;;;23.70;;
65271;SDS011;51868;48.812;8.198;2022-12-18T02:42:45;60.25;;;23.25;;
65271;SDS011;51868;48.812;8.198;2022-12-18T02:45:12;59.88;;;22.52;;
65271;SDS011;51868;48.812;8.198;2022-12-18T02:47:41;64.40;;;23.85;;
65271;SDS011;51868;48.812;8.198;2022-12-18T02:50:14;65.13;;;25.13;;
65271;SDS011;51868;48.812;8.198;2022-12-18T02:52:48;60.55;;;23.70;;
65271;SDS011;51868;48.812;8.198;2022-12-18T02:55:26;61.58;;;23.88;;
65271;SDS011;51868;48.812;8.198;2022-12-18T02:58:03;57.55;;;24.63;;
65271;SDS011;51868;48.812;8.198;2022-12-18T03:03:05;64.95;;;23.15;;
65271;SDS011;51868;48.812;8.198;2022-12-18T03:05:36;68.13;;;23.52;;
65271;SDS011;51868;48.812;8.198;2022-12-18T03:08:10;66.93;;;24.55;;
65271;SDS011;51868;48.812;8.198;2022-12-18T03:10:42;70.05;;;24.60;;
65271;SDS011;51868;48.812;8.198;2022-12-18T03:13:19;65.22;;;23.52;;
65271;SDS011;51868;48.812;8.198;2022-12-18T03:18:21;62.78;;;24.00;;
65271;SDS011;51868;48.812;8.198;2022-12-18T03:20:52;68.47;;;26.40;;
65271;SDS011;51868;48.812;8.198;2022-12-18T03:23:27;61.13;;;22.98;;
65271;SDS011;51868;48.812;8.198;2022-12-18T03:26:02;61.63;;;24.38;;
65271;SDS011;51868;48.812;8.198;2022-12-18T03:28:36;58.25;;;22.90;;
65271;SDS011;51868;48.812;8.198;2022-12-18T03:31:07;75.18;;;25.35;;
65271;SDS011;51868;48.812;8.198;2022-12-18T03:33:37;69.28;;;25.80;;
65271;SDS011;51868;48.812;8.198;2022-12-18T03:36:09;67.38;;;24.63;;
65271;SDS011;51868;48.812;8.198;2022-12-18T03:38:37;56.05;;;24.17;;
65271;SDS011;51868;48.812;8.198;2022-12-18T03:41:07;61.08;;;26.80;;
65271;SDS011;51868;48.812;8.198;2022-12-18T03:43:45;61.67;;;24.25;;
65271;SDS011;51868;48.812;8.198;2022-12-18T03:46:21;55.88;;;22.70;;
65271;SDS011;51868;48.812;8.198;2022-12-18T03:48:58;68.72;;;24.23;;
65271;SDS011;51868;48.812;8.198;2022-12-18T03:51:30;64.07;;;24.88;;
65271;SDS011;51868;48.812;8.198;2022-12-18T03:54:04;63.80;;;23.73;;
65271;SDS011;51868;48.812;8.198;2022-12-18T03:56:36;64.38;;;24.23;;
65271;SDS011;51868;48.812;8.198;2022-12-18T03:59:08;65.50;;;23.65;;
65271;SDS011;51868;48.812;8.198;2022-12-18T04:01:39;68.78;;;25.60;;
65271;SDS011;51868;48.812;8.198;2022-12-18T04:04:10;64.78;;;23.85;;
65271;SDS011;51868;48.812;8.198;2022-12-18T04:06:39;62.17;;;22.42;;
65271;SDS011;51868;48.812;8.198;2022-12-18T04:09:09;66.25;;;22.38;;
65271;SDS011;51868;48.812;8.198;2022-12-18T04:11:37;60.38;;;21.48;;
65271;SDS011;51868;48.812;8.198;2022-12-18T04:14:05;59.10;;;21.80;;
65271;SDS011;51868;48.812;8.198;2022-12-18T04:16:34;64.40;;;24.85;;
65271;SDS011;51868;48.812;8.198;2022-12-18T04:19:02;68.95;;;24.02;;
65271;SDS011;51868;48.812;8.198;2022-12-18T04:21:32;69.22;;;25.40;;
65271;SDS011;51868;48.812;8.198;2022-12-18T04:24:00;75.32;;;24.42;;
65271;SDS011;51868;48.812;8.198;2022-12-18T04:26:28;64.90;;;22.85;;
65271;SDS011;51868;48.812;8.198;2022-12-18T04:28:55;72.50;;;24.08;;
65271;SDS011;51868;48.812;8.198;2022-12-18T04:31:23;64.05;;;22.25;;
65271;SDS011;51868;48.812;8.198;2022-12-18T04:33:52;71.88;;;23.50;;
65271;SDS011;51868;48.812;8.198;2022-12-18T04:36:20;63.88;;;23.00;;
65271;SDS011;51868;48.812;8.198;2022-12-18T04:38:48;67.05;;;23.17;;
65271;SDS011;51868;48.812;8.198;2022-12-18T04:41:16;59.25;;;20.73;;
65271;SDS011;51868;48.812;8.198;2022-12-18T04:43:44;61.85;;;21.48;;
65271;SDS011;51868;48.812;8.198;2022-12-18T04:46:11;60.13;;;19.92;;
65271;SDS011;51868;48.812;8.198;2022-12-18T04:48:39;48.78;;;18.33;;
65271;SDS011;51868;48.812;8.198;2022-12-18T04:51:09;63.70;;;20.00;;
65271;SDS011;51868;48.812;8.198;2022-12-18T04:53:36;59.22;;;20.33;;
65271;SDS011;51868;48.812;8.198;2022-12-18T04:56:05;53.40;;;20.80;;
65271;SDS011;51868;48.812;8.198;2022-12-18T04:58:34;50.85;;;18.65;;
65271;SDS011;51868;48.812;8.198;2022-12-18T05:01:02;59.50;;;20.90;;
65271;SDS011;51868;48.812;8.198;2022-12-18T05:03:30;58.40;;;20.58;;
65271;SDS011;51868;48.812;8.198;2022-12-18T05:05:58;68.50;;;22.08;;
65271;SDS011;51868;48.812;8.198;2022-12-18T05:08:28;51.25;;;20.00;;
65271;SDS011;51868;48.812;8.198;2022-12-18T05:10:59;59.13;;;20.33;;
65271;SDS011;51868;48.812;8.198;2022-12-18T05:13:27;49.60;;;18.50;;
65271;SDS011;51868;48.812;8.198;2022-12-18T05:15:55;64.22;;;21.33;;
65271;SDS011;51868;48.812;8.198;2022-12-18T05:18:23;65.55;;;22.77;;
65271;SDS011;51868;48.812;8.198;2022-12-18T05:20:51;54.72;;;20.60;;
65271;SDS011;51868;48.812;8.198;2022-12-18T05:23:20;64.15;;;22.02;;
65271;SDS011;51868;48.812;8.198;2022-12-18T05:25:51;56.45;;;20.35;;
65271;SDS011;51868;48.812;8.198;2022-12-18T05:28:20;52.47;;;19.77;;
65271;SDS011;51868;48.812;8.198;2022-12-18T05:30:49;62.10;;;21.83;;
65271;SDS011;51868;48.812;8.198;2022-12-18T05:33:17;59.78;;;20.10;;
65271;SDS011;51868;48.812;8.198;2022-12-18T05:35:49;55.15;;;20.42;;
65271;SDS011;51868;48.812;8.198;2022-12-18T05:40:46;65.40;;;20.70;;
65271;SDS011;51868;48.812;8.198;2022-12-18T05:43:16;63.55;;;21.83;;
65271;SDS011;51868;48.812;8.198;2022-12-18T05:45:47;59.35;;;21.00;;
65271;SDS011;51868;48.812;8.198;2022-12-18T05:48:15;56.55;;;19.00;;
65271;SDS011;51868;48.812;8.198;2022-12-18T05:50:43;59.75;;;20.05;;
65271;SDS011;51868;48.812;8.198;2022-12-18T05:53:13;65.40;;;22.77;;
65271;SDS011;51868;48.812;8.198;2022-12-18T05:55:42;61.45;;;21.08;;
65271;SDS011;51868;48.812;8.198;2022-12-18T05:58:11;55.65;;;20.33;;
65271;SDS011;51868;48.812;8.198;2022-12-18T06:00:42;70.18;;;20.45;;
65271;SDS011;51868;48.812;8.198;2022-12-18T06:03:12;59.42;;;20.35;;
65271;SDS011;51868;48.812;8.198;2022-12-18T06:05:41;53.20;;;20.02;;
65271;SDS011;51868;48.812;8.198;2022-12-18T06:08:10;35.65;;;15.50;;
65271;SDS011;51868;48.812;8.198;2022-12-18T06:10:39;54.30;;;18.63;;
65271;SDS011;51868;48.812;8.198;2022-12-18T06:13:07;60.17;;;20.05;;
65271;SDS011;51868;48.812;8.198;2022-12-18T06:15:36;48.35;;;19.10;;
65271;SDS011;51868;48.812;8.198;2022-12-18T06:18:05;48.90;;;19.67;;
65271;SDS011;51868;48.812;8.198;2022-12-18T06:20:33;41.55;;;15.95;;
65271;SDS011;51868;48.812;8.198;2022-12-18T06:23:02;53.17;;;18.38;;
65271;SDS011;51868;48.812;8.198;2022-12-18T06:25:30;56.80;;;19.02;;
65271;SDS011;51868;48.812;8.198;2022-12-18T06:27:58;51.47;;;16.80;;
65271;SDS011;51868;48.812;8.198;2022-12-18T06:30:26;55.47;;;17.65;;
65271;SDS011;51868;48.812;8.198;2022-12-18T06:32:53;57.17;;;20.23;;
65271;SDS011;51868;48.812;8.198;2022-12-18T06:35:23;56.38;;;19.50;;
65271;SDS011;51868;48.812;8.198;2022-12-18T06:37:51;57.83;;;21.33;;
65271;SDS011;51868;48.812;8.198;2022-12-18T06:40:19;61.47;;;20.17;;
65271;SDS011;51868;48.812;8.198;2022-12-18T06:42:46;56.80;;;19.42;;
65271;SDS011;51868;48.812;8.198;2022-12-18T06:45:15;50.10;;;18.02;;
65271;SDS011;51868;48.812;8.198;2022-12-18T06:47:43;63.15;;;21.75;;
65271;SDS011;51868;48.812;8.198;2022-12-18T06:50:11;56.45;;;20.85;;
65271;SDS011;51868;48.812;8.198;2022-12-18T06:52:41;53.13;;;19.45;;
65271;SDS011;51868;48.812;8.198;2022-12-18T06:55:10;59.55;;;21.30;;
65271;SDS011;51868;48.812;8.198;2022-12-18T06:57:38;66.07;;;22.88;;
65271;SDS011;51868;48.812;8.198;2022-12-18T07:00:06;59.17;;;20.58;;
65271;SDS011;51868;48.812;8.198;2022-12-18T07:02:35;61.47;;;20.50;;
65271;SDS011;51868;48.812;8.198;2022-12-18T07:05:03;61.28;;;20.52;;
65271;SDS011;51868;48.812;8.198;2022-12-18T07:07:36;53.20;;;19.02;;
65271;SDS011;51868;48.812;8.198;2022-12-18T07:10:05;53.80;;;17.98;;
65271;SDS011;51868;48.812;8.198;2022-12-18T07:12:33;54.58;;;18.17;;
65271;SDS011;51868;48.812;8.198;2022-12-18T07:15:01;49.75;;;20.30;;
65271;SDS011;51868;48.812;8.198;2022-12-18T07:17:29;54.08;;;20.05;;
65271;SDS011;51868;48.812;8.198;2022-12-18T07:19:57;59.83;;;20.60;;
65271;SDS011;51868;48.812;8.198;2022-12-18T07:22:25;60.25;;;20.80;;
65271;SDS011;51868;48.812;8.198;2022-12-18T07:24:53;58.67;;;19.55;;
65271;SDS011;51868;48.812;8.198;2022-12-18T07:27:22;57.78;;;20.98;;
65271;SDS011;51868;48.812;8.198;2022-12-18T07:29:50;58.42;;;19.25;;
65271;SDS011;51868;48.812;8.198;2022-12-18T07:32:18;56.90;;;19.85;;
65271;SDS011;51868;48.812;8.198;2022-12-18T07:34:55;54.92;;;20.45;;
65271;SDS011;51868;48.812;8.198;2022-12-18T07:37:25;58.08;;;19.80;;
65271;SDS011;51868;48.812;8.198;2022-12-18T07:39:53;43.55;;;16.58;;
65271;SDS011;51868;48.812;8.198;2022-12-18T07:42:32;47.90;;;18.80;;
65271;SDS011;51868;48.812;8.198;2022-12-18T07:45:01;50.50;;;18.85;;
65271;SDS011;51868;48.812;8.198;2022-12-18T07:47:30;58.00;;;20.98;;
65271;SDS011;51868;48.812;8.198;2022-12-18T07:49:57;55.67;;;19.65;;
65271;SDS011;51868;48.812;8.198;2022-12-18T07:52:25;50.00;;;18.80;;
65271;SDS011;51868;48.812;8.198;2022-12-18T07:54:55;52.35;;;18.67;;
65271;SDS011;51868;48.812;8.198;2022-12-18T07:57:22;49.25;;;18.83;;
65271;SDS011;51868;48.812;8.198;2022-12-18T08:00:15;54.22;;;19.63;;
65271;SDS011;51868;48.812;8.198;2022-12-18T08:02:43;50.35;;;17.40;;
65271;SDS011;51868;48.812;8.198;2022-12-18T08:05:11;44.72;;;18.65;;
65271;SDS011;51868;48.812;8.198;2022-12-18T08:07:39;47.30;;;18.00;;
65271;SDS011;51868;48.812;8.198;2022-12-18T08:10:07;50.22;;;18.23;;
65271;SDS011;51868;48.812;8.198;2022-12-18T08:12:56;50.97;;;18.25;;
65271;SDS011;51868;48.812;8.198;2022-12-18T08:15:31;44.92;;;16.58;;
65271;SDS011;51868;48.812;8.198;2022-12-18T08:17:59;47.75;;;17.83;;
65271;SDS011;51868;48.812;8.198;2022-12-18T08:20:27;54.65;;;18.77;;
65271;SDS011;51868;48.812;8.198;2022-12-18T08:22:54;56.05;;;18.77;;
65271;SDS011;51868;48.812;8.198;2022-12-18T08:25:24;45.60;;;17.00;;
65271;SDS011;51868;48.812;8.198;2022-12-18T08:27:51;60.13;;;20.25;;
65271;SDS011;51868;48.812;8.198;2022-12-18T08:30:20;48.17;;;18.73;;
65271;SDS011;51868;48.812;8.198;2022-12-18T08:32:52;49.92;;;17.63;;
65271;SDS011;51868;48.812;8.198;2022-12-18T08:35:20;55.58;;;20.83;;
65271;SDS011;51868;48.812;8.198;2022-12-18T08:37:48;56.78;;;19.33;;
65271;SDS011;51868;48.812;8.198;2022-12-18T08:40:15;57.10;;;20.83;;
65271;SDS011;51868;48.812;8.198;2022-12-18T08:42:43;60.58;;;21.55;;
65271;SDS011;51868;48.812;8.198;2022-12-18T08:45:28;55.30;;;19.65;;
65271;SDS011;51868;48.812;8.198;2022-12-18T08:47:59;55.40;;;20.08;;
65271;SDS011;51868;48.812;8.198;2022-12-18T08:50:26;61.28;;;22.90;;
65271;SDS011;51868;48.812;8.198;2022-12-18T08:52:55;64.65;;;23.80;;
65271;SDS011;51868;48.812;8.198;2022-12-18T08:55:22;56.30;;;21.10;;
65271;SDS011;51868;48.812;8.198;2022-12-18T08:57:51;68.25;;;20.15;;
65271;SDS011;51868;48.812;8.198;2022-12-18T09:00:18;62.00;;;20.15;;
65271;SDS011;51868;48.812;8.198;2022-12-18T09:02:46;52.50;;;19.05;;
65271;SDS011;51868;48.812;8.198;2022-12-18T09:05:19;58.78;;;20.70;;
65271;SDS011;51868;48.812;8.198;2022-12-18T09:07:49;57.55;;;21.02;;
65271;SDS011;51868;48.812;8.198;2022-12-18T09:10:16;57.58;;;20.05;;
65271;SDS011;51868;48.812;8.198;2022-12-18T09:12:46;49.85;;;17.95;;
65271;SDS011;51868;48.812;8.198;2022-12-18T09:15:16;54.30;;;19.30;;
65271;SDS011;51868;48.812;8.198;2022-12-18T09:17:50;60.67;;;21.27;;
65271;SDS011;51868;48.812;8.198;2022-12-18T09:20:24;53.57;;;19.80;;
65271;SDS011;51868;48.812;8.198;2022-12-18T09:22:54;52.78;;;20.73;;
65271;SDS011;51868;48.812;8.198;2022-12-18T09:25:22;60.63;;;21.08;;
65271;SDS011;51868;48.812;8.198;2022-12-18T09:27:50;55.63;;;21.38;;
65271;SDS011;51868;48.812;8.198;2022-12-18T09:30:20;59.15;;;21.95;;
65271;SDS011;51868;48.812;8.198;2022-12-18T09:32:48;77.68;;;23.23;;
65271;SDS011;51868;48.812;8.198;2022-12-18T09:35:20;64.97;;;22.50;;
65271;SDS011;51868;48.812;8.198;2022-12-18T09:37:48;66.38;;;23.15;;
65271;SDS011;51868;48.812;8.198;2022-12-18T09:40:19;59.65;;;21.05;;
65271;SDS011;51868;48.812;8.198;2022-12-18T09:42:50;52.15;;;19.92;;
65271;SDS011;51868;48.812;8.198;2022-12-18T09:45:23;51.72;;;21.10;;
65271;SDS011;51868;48.812;8.198;2022-12-18T09:47:53;66.63;;;23.10;;
65271;SDS011;51868;48.812;8.198;2022-12-18T09:50:28;60.80;;;22.60;;
65271;SDS011;51868;48.812;8.198;2022-12-18T09:53:04;60.50;;;24.00;;
65271;SDS011;51868;48.812;8.198;2022-12-18T09:55:41;61.72;;;20.58;;
65271;SDS011;51868;48.812;8.198;2022-12-18T09:58:16;60.15;;;20.55;;
65271;SDS011;51868;48.812;8.198;2022-12-18T10:00:50;65.68;;;21.83;;
65271;SDS011;51868;48.812;8.198;2022-12-18T10:03:21;56.03;;;20.35;;
65271;SDS011;51868;48.812;8.198;2022-12-18T10:05:54;61.40;;;22.55;;
65271;SDS011;51868;48.812;8.198;2022-12-18T10:08:33;67.65;;;22.80;;
65271;SDS011;51868;48.812;8.198;2022-12-18T10:11:16;76.90;;;23.70;;
65271;SDS011;51868;48.812;8.198;2022-12-18T10:14:00;63.85;;;21.95;;
65271;SDS011;51868;48.812;8.198;2022-12-18T10:16:35;45.78;;;18.65;;
65271;SDS011;51868;48.812;8.198;2022-12-18T10:19:12;62.60;;;23.98;;
65271;SDS011;51868;48.812;8.198;2022-12-18T10:21:51;72.22;;;24.83;;
65271;SDS011;51868;48.812;8.198;2022-12-18T10:24:26;64.03;;;21.50;;
65271;SDS011;51868;48.812;8.198;2022-12-18T10:27:04;63.85;;;21.70;;
65271;SDS011;51868;48.812;8.198;2022-12-18T10:29:41;54.15;;;20.65;;
65271;SDS011;51868;48.812;8.198;2022-12-18T10:32:12;67.47;;;22.83;;
65271;SDS011;51868;48.812;8.198;2022-12-18T10:34:44;84.28;;;24.90;;
65271;SDS011;51868;48.812;8.198;2022-12-18T10:37:16;70.38;;;24.38;;
65271;SDS011;51868;48.812;8.198;2022-12-18T10:39:45;63.53;;;21.02;;
65271;SDS011;51868;48.812;8.198;2022-12-18T10:42:17;64.68;;;22.10;;
65271;SDS011;51868;48.812;8.198;2022-12-18T10:44:46;71.57;;;21.98;;
65271;SDS011;51868;48.812;8.198;2022-12-18T10:47:27;68.50;;;21.98;;
65271;SDS011;51868;48.812;8.198;2022-12-18T10:49:55;71.18;;;22.15;;
65271;SDS011;51868;48.812;8.198;2022-12-18T10:52:25;62.95;;;23.65;;
65271;SDS011;51868;48.812;8.198;2022-12-18T10:54:55;63.88;;;23.60;;
65271;SDS011;51868;48.812;8.198;2022-12-18T10:57:29;72.88;;;25.38;;
65271;SDS011;51868;48.812;8.198;2022-12-18T11:00:01;67.43;;;23.83;;
65271;SDS011;51868;48.812;8.198;2022-12-18T11:02:48;54.20;;;19.63;;
65271;SDS011;51868;48.812;8.198;2022-12-18T11:05:26;57.00;;;19.90;;
65271;SDS011;51868;48.812;8.198;2022-12-18T11:07:57;69.90;;;22.67;;
65271;SDS011;51868;48.812;8.198;2022-12-18T11:10:27;60.85;;;22.10;;
65271;SDS011;51868;48.812;8.198;2022-12-18T11:13:08;61.45;;;22.95;;
65271;SDS011;51868;48.812;8.198;2022-12-18T11:15:39;50.05;;;22.20;;
65271;SDS011;51868;48.812;8.198;2022-12-18T11:18:14;63.28;;;21.40;;
65271;SDS011;51868;48.812;8.198;2022-12-18T11:20:49;67.70;;;23.85;;
65271;SDS011;51868;48.812;8.198;2022-12-18T11:23:25;59.85;;;20.13;;
65271;SDS011;51868;48.812;8.198;2022-12-18T11:25:54;64.72;;;22.60;;
65271;SDS011;51868;48.812;8.198;2022-12-18T11:28:25;55.20;;;20.80;;
65271;SDS011;51868;48.812;8.198;2022-12-18T11:31:08;58.92;;;20.88;;
65271;SDS011;51868;48.812;8.198;2022-12-18T11:33:50;44.70;;;17.70;;
65271;SDS011;51868;48.812;8.198;2022-12-18T11:36:44;62.03;;;21.92;;
65271;SDS011;51868;48.812;8.198;2022-12-18T11:39:15;62.55;;;21.90;;
65271;SDS011;51868;48.812;8.198;2022-12-18T11:41:49;54.65;;;20.80;;
65271;SDS011;51868;48.812;8.198;2022-12-18T11:44:41;57.20;;;23.02;;
65271;SDS011;51868;48.812;8.198;2022-12-18T11:47:16;60.50;;;22.40;;
65271;SDS011;51868;48.812;8.198;2022-12-18T11:49:47;55.45;;;21.17;;
65271;SDS011;51868;48.812;8.198;2022-12-18T11:52:18;56.10;;;21.75;;
65271;SDS011;51868;48.812;8.198;2022-12-18T11:54:52;57.45;;;21.15;;
65271;SDS011;51868;48.812;8.198;2022-12-18T11:57:24;51.22;;;20.10;;
65271;SDS011;51868;48.812;8.198;2022-12-18T12:00:02;54.67;;;20.80;;
65271;SDS011;51868;48.812;8.198;2022-12-18T12:02:42;48.85;;;19.60;;
65271;SDS011;51868;48.812;8.198;2022-12-18T12:05:38;62.05;;;20.25;;
65271;SDS011;51868;48.812;8.198;2022-12-18T12:08:14;88.10;;;23.05;;
65271;SDS011;51868;48.812;8.198;2022-12-18T12:10:51;53.72;;;20.48;;
65271;SDS011;51868;48.812;8.198;2022-12-18T12:13:28;53.40;;;20.23;;
65271;SDS011;51868;48.812;8.198;2022-12-18T12:16:10;49.67;;;20.83;;
65271;SDS011;51868;48.812;8.198;2022-12-18T12:18:48;55.88;;;21.23;;
65271;SDS011;51868;48.812;8.198;2022-12-18T12:21:24;60.30;;;22.38;;
65271;SDS011;51868;48.812;8.198;2022-12-18T12:24:01;63.45;;;22.10;;
65271;SDS011;51868;48.812;8.198;2022-12-18T12:26:42;59.70;;;22.50;;
65271;SDS011;51868;48.812;8.198;2022-12-18T12:29:20;62.05;;;21.98;;
65271;SDS011;51868;48.812;8.198;2022-12-18T12:32:03;65.22;;;22.17;;
65271;SDS011;51868;48.812;8.198;2022-12-18T12:34:45;57.10;;;20.75;;
65271;SDS011;51868;48.812;8.198;2022-12-18T12:37:30;61.35;;;22.85;;
65271;SDS011;51868;48.812;8.198;2022-12-18T12:40:10;54.72;;;20.38;;
65271;SDS011;51868;48.812;8.198;2022-12-18T12:43:05;69.25;;;24.45;;
65271;SDS011;51868;48.812;8.198;2022-12-18T12:45:49;124.10;;;35.70;;
65271;SDS011;51868;48.812;8.198;2022-12-18T12:48:37;60.75;;;23.02;;
65271;SDS011;51868;48.812;8.198;2022-12-18T12:51:12;56.20;;;20.13;;
65271;SDS011;51868;48.812;8.198;2022-12-18T12:53:43;59.88;;;21.90;;
65271;SDS011;51868;48.812;8.198;2022-12-18T12:56:13;65.88;;;21.77;;
65271;SDS011;51868;48.812;8.198;2022-12-18T12:58:46;91.40;;;28.95;;
65271;SDS011;51868;48.812;8.198;2022-12-18T13:01:25;64.30;;;21.88;;
65271;SDS011;51868;48.812;8.198;2022-12-18T13:04:02;69.25;;;23.63;;
65271;SDS011;51868;48.812;8.198;2022-12-18T13:06:37;53.10;;;21.50;;
65271;SDS011;51868;48.812;8.198;2022-12-18T13:09:12;57.25;;;21.60;;
65271;SDS011;51868;48.812;8.198;2022-12-18T13:11:40;62.00;;;21.85;;
65271;SDS011;51868;48.812;8.198;2022-12-18T13:14:31;56.97;;;21.50;;
65271;SDS011;51868;48.812;8.198;2022-12-18T13:17:17;60.47;;;22.13;;
65271;SDS011;51868;48.812;8.198;2022-12-18T13:20:04;62.78;;;22.70;;
65271;SDS011;51868;48.812;8.198;2022-12-18T13:22:43;57.13;;;21.92;;
65271;SDS011;51868;48.812;8.198;2022-12-18T13:25:31;60.38;;;23.70;;
65271;SDS011;51868;48.812;8.198;2022-12-18T13:28:22;57.47;;;20.23;;
65271;SDS011;51868;48.812;8.198;2022-12-18T13:30:54;62.83;;;22.65;;
65271;SDS011;51868;48.812;8.198;2022-12-18T13:36:34;62.08;;;21.45;;
65271;SDS011;51868;48.812;8.198;2022-12-18T13:39:09;70.93;;;26.15;;
65271;SDS011;51868;48.812;8.198;2022-12-18T13:45:37;69.03;;;24.20;;
65271;SDS011;51868;48.812;8.198;2022-12-18T13:48:17;57.88;;;21.33;;
65271;SDS011;51868;48.812;8.198;2022-12-18T13:50:49;56.35;;;21.70;;
65271;SDS011;51868;48.812;8.198;2022-12-18T13:53:21;64.43;;;23.40;;
65271;SDS011;51868;48.812;8.198;2022-12-18T13:55:52;59.67;;;21.43;;
65271;SDS011;51868;48.812;8.198;2022-12-18T13:58:20;64.35;;;22.80;;
65271;SDS011;51868;48.812;8.198;2022-12-18T14:00:48;66.70;;;23.23;;
65271;SDS011;51868;48.812;8.198;2022-12-18T14:03:20;76.18;;;26.13;;
65271;SDS011;51868;48.812;8.198;2022-12-18T14:05:54;62.40;;;22.77;;
65271;SDS011;51868;48.812;8.198;2022-12-18T14:08:27;55.38;;;21.08;;
65271;SDS011;51868;48.812;8.198;2022-12-18T14:11:00;58.83;;;21.67;;
65271;SDS011;51868;48.812;8.198;2022-12-18T14:13:31;56.35;;;22.35;;
65271;SDS011;51868;48.812;8.198;2022-12-18T14:16:04;64.60;;;21.92;;
65271;SDS011;51868;48.812;8.198;2022-12-18T14:18:41;58.30;;;22.90;;
65271;SDS011;51868;48.812;8.198;2022-12-18T14:21:17;58.88;;;23.35;;
65271;SDS011;51868;48.812;8.198;2022-12-18T14:23:47;58.78;;;22.90;;
65271;SDS011;51868;48.812;8.198;2022-12-18T14:26:25;63.65;;;22.67;;
65271;SDS011;51868;48.812;8.198;2022-12-18T14:28:56;61.53;;;22.30;;
65271;SDS011;51868;48.812;8.198;2022-12-18T14:31:27;61.47;;;23.02;;
65271;SDS011;51868;48.812;8.198;2022-12-18T14:33:58;63.03;;;22.83;;
65271;SDS011;51868;48.812;8.198;2022-12-18T14:36:26;60.30;;;23.02;;
65271;SDS011;51868;48.812;8.198;2022-12-18T14:38:55;57.65;;;21.60;;
65271;SDS011;51868;48.812;8.198;2022-12-18T14:41:24;70.57;;;24.35;;
65271;SDS011;51868;48.812;8.198;2022-12-18T14:43:54;60.42;;;23.33;;
65271;SDS011;51868;48.812;8.198;2022-12-18T14:46:26;65.43;;;24.00;;
65271;SDS011;51868;48.812;8.198;2022-12-18T14:49:00;58.33;;;23.50;;
65271;SDS011;51868;48.812;8.198;2022-12-18T14:51:30;71.63;;;26.80;;
65271;SDS011;51868;48.812;8.198;2022-12-18T14:54:01;65.45;;;24.15;;
65271;SDS011;51868;48.812;8.198;2022-12-18T14:56:30;63.78;;;23.95;;
65271;SDS011;51868;48.812;8.198;2022-12-18T14:59:00;72.72;;;24.77;;
65271;SDS011;51868;48.812;8.198;2022-12-18T15:01:29;57.63;;;22.00;;
65271;SDS011;51868;48.812;8.198;2022-12-18T15:04:01;67.20;;;25.02;;
65271;SDS011;51868;48.812;8.198;2022-12-18T15:06:32;62.22;;;24.10;;